createdAt,value
2022-09-25T00:01:25.905Z,81.62
2022-09-25T00:03:53.522Z,81.00
2022-09-25T00:06:25.244Z,81.86
2022-09-25T00:08:53.510Z,81.96
2022-09-25T00:11:21.968Z,82.09
2022-09-25T00:13:49.735Z,81.80
2022-09-25T00:16:18.270Z,82.14
2022-09-25T00:19:03.431Z,81.98
2022-09-25T00:21:35.798Z,82.67
2022-09-25T00:24:05.508Z,80.34
2022-09-25T00:26:36.447Z,80.07
2022-09-25T00:29:04.237Z,81.11
2022-09-25T00:31:36.770Z,80.65
2022-09-25T00:34:05.507Z,81.35
2022-09-25T00:36:35.189Z,82.49
2022-09-25T00:39:02.742Z,82.93
2022-09-25T00:41:35.666Z,81.69
2022-09-25T00:44:04.431Z,80.90
2022-09-25T00:46:37.006Z,80.45
2022-09-25T00:49:05.481Z,82.67
2022-09-25T00:51:40.906Z,82.03
2022-09-25T00:54:09.735Z,82.10
2022-09-25T00:56:38.827Z,81.36
2022-09-25T00:59:06.665Z,83.07
2022-09-25T01:01:34.283Z,82.46
2022-09-25T01:04:02.257Z,82.87
2022-09-25T01:06:32.644Z,83.54
2022-09-25T01:09:01.994Z,83.72
2022-09-25T01:11:31.128Z,83.80
2022-09-25T01:13:59.340Z,83.32
2022-09-25T01:16:29.993Z,83.42
2022-09-25T01:19:00.570Z,82.66
2022-09-25T01:21:34.606Z,81.04
2022-09-25T01:24:10.361Z,81.24
2022-09-25T01:26:45.585Z,80.85
2022-09-25T01:29:15.593Z,81.28
2022-09-25T01:31:44.285Z,81.59
2022-09-25T01:34:14.364Z,79.83
2022-09-25T01:37:01.507Z,80.76
2022-09-25T01:39:29.747Z,79.68
2022-09-25T01:41:58.697Z,79.14
2022-09-25T01:44:30.602Z,78.63
2022-09-25T01:47:01.277Z,79.06
2022-09-25T01:49:29.819Z,78.56
2022-09-25T01:51:58.256Z,79.54
2022-09-25T01:54:28.706Z,80.40
2022-09-25T01:56:57.038Z,81.69
2022-09-25T01:59:25.771Z,80.55
2022-09-25T02:01:55.933Z,79.51
2022-09-25T02:04:25.578Z,79.03
2022-09-25T02:06:57.728Z,79.55
2022-09-25T02:09:30.424Z,80.65
2022-09-25T02:12:00.430Z,80.65
2022-09-25T02:14:28.378Z,80.08
2022-09-25T02:16:57.893Z,81.53
2022-09-25T02:19:43.052Z,80.80
2022-09-25T02:22:12.073Z,79.73
2022-09-25T02:24:40.928Z,80.10
2022-09-25T02:27:10.553Z,80.69
2022-09-25T02:29:38.750Z,81.25
2022-09-25T02:32:09.445Z,80.73
2022-09-25T02:34:37.311Z,80.77
2022-09-25T02:37:05.289Z,81.05
2022-09-25T02:39:33.291Z,81.03
2022-09-25T02:42:15.529Z,80.50
2022-09-25T02:44:45.545Z,81.34
2022-09-25T02:47:20.058Z,80.65
2022-09-25T02:49:49.505Z,79.81
2022-09-25T02:52:19.390Z,80.67
2022-09-25T02:54:47.256Z,81.16
2022-09-25T02:57:15.599Z,81.31
2022-09-25T02:59:43.626Z,82.15
2022-09-25T03:02:11.808Z,82.20
2022-09-25T03:04:40.932Z,83.75
2022-09-25T03:07:08.498Z,82.27
2022-09-25T03:09:36.188Z,83.13
2022-09-25T03:12:04.478Z,83.30
2022-09-25T03:14:32.121Z,83.04
2022-09-25T03:17:00.571Z,82.61
2022-09-25T03:19:31.714Z,81.75
2022-09-25T03:22:03.652Z,82.48
2022-09-25T03:24:31.427Z,82.99
2022-09-25T03:26:59.080Z,82.88
2022-09-25T03:29:26.710Z,83.39
2022-09-25T03:31:57.269Z,85.32
2022-09-25T03:34:26.181Z,86.09
2022-09-25T03:36:57.455Z,84.41
2022-09-25T03:39:26.889Z,85.05
2022-09-25T03:41:54.498Z,82.67
2022-09-25T03:44:24.563Z,84.50
2022-09-25T03:46:52.146Z,85.41
2022-09-25T03:49:19.965Z,85.17
2022-09-25T03:52:00.239Z,84.98
2022-09-25T03:54:30.307Z,83.92
2022-09-25T03:57:05.877Z,82.14
2022-09-25T03:59:33.601Z,82.95
2022-09-25T04:02:02.441Z,83.27
2022-09-25T04:04:33.221Z,82.66
2022-09-25T04:07:05.316Z,82.64
2022-09-25T04:09:34.632Z,81.95
2022-09-25T04:12:02.420Z,82.73
2022-09-25T04:14:32.357Z,83.85
2022-09-25T04:17:00.117Z,84.74
2022-09-25T04:19:27.691Z,82.84
2022-09-25T04:21:58.187Z,84.04
2022-09-25T04:24:43.315Z,84.36
2022-09-25T04:27:14.468Z,84.04
2022-09-25T04:29:42.504Z,84.68
2022-09-25T04:32:29.811Z,85.13
2022-09-25T04:34:58.356Z,85.74
2022-09-25T04:37:26.557Z,86.45
2022-09-25T04:39:54.298Z,85.41
2022-09-25T04:42:24.610Z,83.90
2022-09-25T04:44:55.536Z,85.66
2022-09-25T04:47:23.636Z,86.85
2022-09-25T04:49:51.631Z,85.77
2022-09-25T04:52:20.080Z,85.51
2022-09-25T04:54:48.227Z,85.26
2022-09-25T04:57:32.598Z,84.84
2022-09-25T05:00:06.084Z,84.47
2022-09-25T05:02:33.769Z,83.69
2022-09-25T05:05:01.870Z,82.17
2022-09-25T05:07:31.793Z,83.27
2022-09-25T05:09:59.661Z,83.42
2022-09-25T05:12:27.436Z,82.95
2022-09-25T05:14:55.312Z,84.76
2022-09-25T05:17:25.708Z,85.52
2022-09-25T05:19:54.787Z,84.93
2022-09-25T05:22:22.535Z,84.91
2022-09-25T05:24:54.158Z,84.22
2022-09-25T05:27:25.988Z,85.83
2022-09-25T05:29:53.965Z,86.80
2022-09-25T05:32:22.918Z,85.76
2022-09-25T05:34:52.498Z,85.09
2022-09-25T05:37:20.401Z,84.32
2022-09-25T05:39:48.097Z,84.59
2022-09-25T05:42:19.273Z,85.22
2022-09-25T05:44:48.646Z,85.39
2022-09-25T05:47:17.776Z,85.10
2022-09-25T05:49:45.700Z,84.88
2022-09-25T05:52:14.918Z,84.03
2022-09-25T05:54:45.105Z,83.24
2022-09-25T05:57:12.795Z,83.93
2022-09-25T05:59:40.821Z,82.57
2022-09-25T06:02:10.776Z,82.92
2022-09-25T06:04:38.615Z,83.70
2022-09-25T06:07:07.794Z,82.33
2022-09-25T06:09:39.334Z,82.96
2022-09-25T06:12:07.437Z,85.10
2022-09-25T06:14:37.104Z,85.94
2022-09-25T06:17:04.910Z,85.27
2022-09-25T06:19:32.536Z,85.01
2022-09-25T06:22:08.966Z,84.03
2022-09-25T06:24:38.168Z,84.52
2022-09-25T06:27:06.978Z,84.70
2022-09-25T06:29:34.686Z,82.17
2022-09-25T06:32:04.260Z,82.95
2022-09-25T06:34:32.002Z,84.06
2022-09-25T06:37:01.028Z,84.93
2022-09-25T06:39:30.250Z,83.68
2022-09-25T06:41:59.753Z,86.63
2022-09-25T06:44:28.307Z,85.62
2022-09-25T06:46:56.455Z,85.04
2022-09-25T06:49:23.973Z,86.04
2022-09-25T06:51:52.059Z,85.90
2022-09-25T06:54:22.210Z,86.33
2022-09-25T06:56:50.843Z,84.48
2022-09-25T06:59:20.082Z,82.30
2022-09-25T07:01:51.256Z,83.94
2022-09-25T07:04:18.636Z,82.78
2022-09-25T07:06:47.150Z,83.25
2022-09-25T07:09:17.882Z,81.90
2022-09-25T07:11:50.267Z,82.37
2022-09-25T07:14:18.260Z,84.32
2022-09-25T07:16:52.171Z,82.51
2022-09-25T07:19:21.710Z,82.10
2022-09-25T07:21:55.166Z,82.60
2022-09-25T07:24:26.526Z,82.79
2022-09-25T07:26:54.067Z,84.65
2022-09-25T07:29:24.307Z,85.44
2022-09-25T07:32:05.752Z,86.48
2022-09-25T07:34:37.719Z,87.88
2022-09-25T07:37:05.251Z,88.42
2022-09-25T07:39:33.227Z,85.54
2022-09-25T07:42:01.049Z,86.86
2022-09-25T07:44:31.443Z,88.09
2022-09-25T07:47:04.864Z,86.28
2022-09-25T07:49:32.519Z,85.82
2022-09-25T07:52:01.254Z,84.95
2022-09-25T07:54:31.166Z,84.69
2022-09-25T07:56:59.240Z,83.50
2022-09-25T07:59:26.765Z,82.51
2022-09-25T08:01:58.210Z,82.04
2022-09-25T08:04:27.640Z,80.81
2022-09-25T08:06:55.440Z,81.87
2022-09-25T08:09:23.104Z,82.39
2022-09-25T08:11:51.850Z,81.52
2022-09-25T08:14:26.504Z,80.72
2022-09-25T08:16:56.065Z,80.36
2022-09-25T08:19:24.167Z,82.40
2022-09-25T08:21:54.565Z,79.40
2022-09-25T08:24:25.105Z,80.78
2022-09-25T08:26:52.990Z,79.56
2022-09-25T08:29:20.490Z,79.98
2022-09-25T08:31:48.655Z,78.84
2022-09-25T08:34:39.951Z,78.26
2022-09-25T08:37:09.548Z,76.01
2022-09-25T08:39:37.662Z,76.38
2022-09-25T08:42:05.602Z,77.02
2022-09-25T08:44:36.476Z,74.95
2022-09-25T08:47:22.908Z,76.44
2022-09-25T08:49:52.204Z,75.21
2022-09-25T08:52:23.569Z,76.16
2022-09-25T08:54:51.357Z,75.30
2022-09-25T08:57:27.283Z,76.75
2022-09-25T09:00:01.387Z,76.14
2022-09-25T09:02:42.659Z,75.23
2022-09-25T09:05:15.425Z,74.89
2022-09-25T09:07:46.063Z,77.09
2022-09-25T09:10:18.023Z,78.78
2022-09-25T09:12:49.586Z,78.90
2022-09-25T09:15:19.213Z,79.15
2022-09-25T09:17:47.064Z,77.04
2022-09-25T09:20:16.236Z,76.41
2022-09-25T09:22:47.399Z,78.05
2022-09-25T09:25:19.392Z,77.34
2022-09-25T09:27:57.570Z,74.97
2022-09-25T09:30:27.799Z,73.84
2022-09-25T09:33:09.498Z,72.35
2022-09-25T09:35:39.366Z,73.63
2022-09-25T09:38:12.061Z,73.83
2022-09-25T09:40:47.329Z,71.56
2022-09-25T09:43:17.763Z,77.60
2022-09-25T09:45:46.520Z,77.81
2022-09-25T09:48:15.881Z,79.19
2022-09-25T09:50:52.356Z,76.53
2022-09-25T09:53:25.943Z,76.74
2022-09-25T09:55:54.408Z,76.29
2022-09-25T09:58:22.777Z,76.12
2022-09-25T10:00:52.788Z,75.35
2022-09-25T10:03:21.273Z,75.71
2022-09-25T10:05:49.404Z,77.31
2022-09-25T10:08:17.912Z,78.59
2022-09-25T10:10:48.476Z,79.63
2022-09-25T10:13:18.868Z,76.80
2022-09-25T10:15:48.733Z,79.11
2022-09-25T10:18:16.624Z,78.62
2022-09-25T10:20:46.813Z,77.74
2022-09-25T10:23:33.805Z,80.90
2022-09-25T10:26:02.736Z,77.39
2022-09-25T10:28:31.217Z,77.09
2022-09-25T10:30:59.258Z,78.61
2022-09-25T10:33:28.889Z,79.93
2022-09-25T10:35:59.918Z,82.64
2022-09-25T10:38:35.275Z,82.27
2022-09-25T10:41:09.561Z,84.49
2022-09-25T10:43:49.571Z,82.78
2022-09-25T10:46:39.931Z,80.54
2022-09-25T10:49:34.980Z,83.88
2022-09-25T10:52:05.694Z,83.50
2022-09-25T10:54:33.913Z,84.38
2022-09-25T10:57:03.136Z,84.71
2022-09-25T10:59:31.063Z,82.34
2022-09-25T11:02:03.537Z,82.44
2022-09-25T11:04:31.757Z,79.72
2022-09-25T11:07:00.443Z,77.45
2022-09-25T11:09:32.605Z,79.07
2022-09-25T11:12:09.820Z,78.29
2022-09-25T11:14:37.485Z,76.73
2022-09-25T11:17:06.878Z,76.14
2022-09-25T11:19:35.358Z,77.16
2022-09-25T11:22:14.735Z,76.49
2022-09-25T11:24:49.786Z,76.98
2022-09-25T11:27:20.151Z,77.94
2022-09-25T11:29:54.566Z,75.72
2022-09-25T11:32:23.840Z,76.55
2022-09-25T11:34:57.165Z,77.36
2022-09-25T11:37:26.180Z,76.24
2022-09-25T11:40:15.561Z,76.62
2022-09-25T11:42:47.961Z,71.44
2022-09-25T11:45:18.518Z,71.10
2022-09-25T11:47:47.243Z,73.40
2022-09-25T11:50:17.936Z,78.15
2022-09-25T11:52:47.577Z,78.87
2022-09-25T11:55:34.645Z,76.74
2022-09-25T11:58:07.960Z,74.52
2022-09-25T12:00:41.708Z,74.84
2022-09-25T12:03:29.389Z,71.71
2022-09-25T12:06:08.935Z,72.79
2022-09-25T12:08:41.379Z,72.33
2022-09-25T12:11:11.891Z,71.92
2022-09-25T12:13:45.279Z,73.04
2022-09-25T12:16:20.828Z,72.21
2022-09-25T12:18:55.565Z,71.42
2022-09-25T12:21:24.750Z,73.12
2022-09-25T12:23:57.906Z,74.57
2022-09-25T12:26:26.237Z,73.17
2022-09-25T12:29:01.278Z,73.84
2022-09-25T12:31:31.302Z,70.62
2022-09-25T12:34:00.924Z,70.13
2022-09-25T12:36:36.432Z,70.63
2022-09-25T12:39:08.926Z,71.76
2022-09-25T12:41:40.950Z,77.66
2022-09-25T12:44:12.695Z,78.40
2022-09-25T12:46:43.266Z,79.12
2022-09-25T12:49:14.179Z,81.38
2022-09-25T12:51:42.573Z,82.05
2022-09-25T12:54:14.759Z,82.44
2022-09-25T12:56:43.992Z,81.66
2022-09-25T12:59:14.704Z,81.82
2022-09-25T13:01:45.955Z,82.19
2022-09-25T13:04:24.087Z,79.82
2022-09-25T13:06:53.696Z,77.99
2022-09-25T13:09:24.742Z,80.42
2022-09-25T13:11:53.831Z,83.36
2022-09-25T13:14:30.165Z,82.51
2022-09-25T13:16:58.266Z,82.17
2022-09-25T13:19:31.510Z,80.89
2022-09-25T13:22:06.313Z,79.40
2022-09-25T13:24:40.317Z,81.98
2022-09-25T13:27:12.626Z,81.73
2022-09-25T13:29:49.396Z,79.86
2022-09-25T13:32:19.901Z,79.35
2022-09-25T13:34:55.387Z,78.87
2022-09-25T13:37:25.196Z,77.83
2022-09-25T13:40:19.340Z,78.04
2022-09-25T13:42:48.076Z,79.97
2022-09-25T13:45:33.617Z,80.25
2022-09-25T13:48:07.143Z,79.44
2022-09-25T13:50:38.972Z,81.31
2022-09-25T13:53:22.261Z,80.05
2022-09-25T13:56:09.500Z,78.51
2022-09-25T13:59:00.797Z,78.63
2022-09-25T14:01:34.421Z,76.03
2022-09-25T14:04:02.266Z,76.08
2022-09-25T14:06:36.877Z,77.39
2022-09-25T14:09:07.989Z,77.22
2022-09-25T14:11:37.914Z,77.71
2022-09-25T14:14:06.873Z,77.04
2022-09-25T14:16:36.423Z,75.18
2022-09-25T14:19:04.629Z,73.58
2022-09-25T14:21:33.648Z,74.74
2022-09-25T14:24:14.246Z,74.68
2022-09-25T14:26:45.127Z,73.92
2022-09-25T14:29:15.040Z,73.93
2022-09-25T14:31:44.948Z,73.96
2022-09-25T14:34:16.860Z,74.71
2022-09-25T14:36:50.390Z,75.42
2022-09-25T14:39:25.646Z,76.72
2022-09-25T14:42:04.458Z,76.67
2022-09-25T14:44:36.605Z,77.39
2022-09-25T14:47:10.852Z,76.54
2022-09-25T14:49:48.280Z,74.38
2022-09-25T14:52:19.967Z,72.96
2022-09-25T14:54:51.435Z,72.27
2022-09-25T14:57:23.410Z,69.77
2022-09-25T14:59:55.234Z,72.68
2022-09-25T15:02:26.945Z,74.95
2022-09-25T15:05:01.216Z,78.68
2022-09-25T15:07:29.011Z,77.88
2022-09-25T15:09:57.793Z,79.35
2022-09-25T15:12:33.399Z,79.85
2022-09-25T15:15:01.658Z,80.09
2022-09-25T15:17:33.073Z,78.01
2022-09-25T15:20:01.049Z,77.45
2022-09-25T15:22:30.606Z,78.54
2022-09-25T15:24:59.373Z,79.93
2022-09-25T15:27:28.436Z,77.98
2022-09-25T15:29:56.514Z,79.38
2022-09-25T15:32:28.377Z,78.39
2022-09-25T15:35:16.102Z,78.51
2022-09-25T15:37:43.774Z,79.80
2022-09-25T15:40:15.767Z,80.24
2022-09-25T15:42:45.179Z,81.36
2022-09-25T15:45:29.277Z,81.07
2022-09-25T15:47:57.887Z,77.71
2022-09-25T15:50:29.351Z,80.07
2022-09-25T15:52:58.223Z,81.53
2022-09-25T15:55:25.990Z,81.17
2022-09-25T15:57:54.100Z,80.94
2022-09-25T16:00:40.060Z,81.35
2022-09-25T16:03:29.108Z,83.15
2022-09-25T16:06:00.861Z,82.61
2022-09-25T16:08:34.388Z,82.86
2022-09-25T16:11:19.668Z,83.19
2022-09-25T16:13:54.412Z,82.00
2022-09-25T16:16:23.354Z,83.91
2022-09-25T16:18:51.213Z,83.56
2022-09-25T16:21:25.568Z,84.43
2022-09-25T16:23:56.156Z,85.96
2022-09-25T16:26:24.828Z,86.32
2022-09-25T16:28:57.459Z,87.08
2022-09-25T16:31:26.041Z,86.06
2022-09-25T16:33:55.135Z,88.48
2022-09-25T16:36:27.487Z,86.24
2022-09-25T16:39:06.009Z,85.21
2022-09-25T16:41:35.947Z,83.87
2022-09-25T16:44:14.222Z,86.14
2022-09-25T16:46:42.345Z,87.33
2022-09-25T16:49:12.087Z,88.49
2022-09-25T16:51:45.046Z,88.86
2022-09-25T16:54:12.997Z,90.75
2022-09-25T16:56:43.050Z,88.44
2022-09-25T16:59:16.042Z,89.76
2022-09-25T17:01:43.857Z,89.07
2022-09-25T17:04:11.868Z,87.88
2022-09-25T17:06:46.188Z,89.54
2022-09-25T17:09:14.531Z,88.81
2022-09-25T17:11:44.794Z,87.26
2022-09-25T17:14:15.222Z,87.10
2022-09-25T17:16:42.804Z,86.67
2022-09-25T17:19:12.386Z,86.36
2022-09-25T17:21:47.445Z,88.37
2022-09-25T17:24:16.799Z,91.11
2022-09-25T17:26:44.756Z,88.25
2022-09-25T17:29:12.563Z,85.95
2022-09-25T17:31:40.435Z,88.34
2022-09-25T17:34:10.935Z,86.41
2022-09-25T17:36:39.397Z,86.37
2022-09-25T17:39:17.955Z,87.38
2022-09-25T17:41:45.542Z,88.14
2022-09-25T17:44:15.618Z,89.04
2022-09-25T17:46:43.889Z,90.17
2022-09-25T17:49:11.697Z,88.81
2022-09-25T17:51:41.904Z,88.70
2022-09-25T17:54:12.789Z,90.53
2022-09-25T17:56:42.664Z,90.73
2022-09-25T17:59:10.554Z,89.94
2022-09-25T18:01:49.831Z,91.51
2022-09-25T18:04:20.365Z,89.89
2022-09-25T18:06:48.696Z,91.78
2022-09-25T18:09:17.976Z,90.22
2022-09-25T18:11:45.720Z,92.28
2022-09-25T18:14:16.127Z,91.32
2022-09-25T18:16:44.457Z,92.48
2022-09-25T18:19:32.134Z,93.29
2022-09-25T18:22:18.253Z,90.16
2022-09-25T18:24:52.869Z,89.99
2022-09-25T18:27:20.773Z,89.46
2022-09-25T18:29:49.947Z,90.68
2022-09-25T18:32:17.930Z,90.60
2022-09-25T18:34:45.694Z,90.85
2022-09-25T18:37:13.630Z,89.57
2022-09-25T18:39:41.299Z,90.55
2022-09-25T18:42:14.199Z,91.67
2022-09-25T18:44:44.996Z,92.24
2022-09-25T18:47:15.171Z,92.20
2022-09-25T18:49:44.228Z,93.07
2022-09-25T18:52:11.923Z,92.23
2022-09-25T18:54:42.166Z,95.56
2022-09-25T18:57:11.588Z,94.89
2022-09-25T18:59:45.358Z,94.54
2022-09-25T19:02:17.626Z,93.78
2022-09-25T19:04:45.524Z,94.10
2022-09-25T19:07:14.071Z,91.48
2022-09-25T19:09:42.068Z,89.91
2022-09-25T19:12:15.486Z,91.91
2022-09-25T19:14:44.963Z,94.69
2022-09-25T19:17:12.826Z,94.18
2022-09-25T19:19:41.080Z,94.12
2022-09-25T19:22:10.547Z,94.10
2022-09-25T19:24:38.111Z,95.30
2022-09-25T19:27:06.798Z,93.94
2022-09-25T19:29:39.106Z,93.54
2022-09-25T19:32:07.866Z,92.73
2022-09-25T19:34:35.797Z,93.82
2022-09-25T19:37:04.033Z,94.99
2022-09-25T19:39:54.309Z,93.41
2022-09-25T19:42:25.079Z,94.57
2022-09-25T19:44:55.249Z,93.43
2022-09-25T19:47:23.624Z,90.68
2022-09-25T19:49:51.555Z,90.07
2022-09-25T19:52:20.553Z,89.84
2022-09-25T19:54:48.483Z,91.28
2022-09-25T19:57:18.544Z,88.72
2022-09-25T19:59:49.317Z,89.32
2022-09-25T20:02:18.480Z,87.62
2022-09-25T20:04:48.138Z,85.60
2022-09-25T20:07:16.082Z,86.24
2022-09-25T20:09:45.789Z,87.83
2022-09-25T20:12:13.320Z,90.72
2022-09-25T20:14:40.946Z,90.47
2022-09-25T20:17:10.004Z,91.13
2022-09-25T20:19:39.670Z,93.11
2022-09-25T20:22:07.321Z,91.38
2022-09-25T20:24:34.897Z,91.24
2022-09-25T20:27:02.535Z,92.35
2022-09-25T20:29:30.193Z,89.24
2022-09-25T20:32:08.003Z,89.39
2022-09-25T20:34:35.762Z,89.46
2022-09-25T20:37:05.419Z,88.16
2022-09-25T20:39:32.993Z,86.43
2022-09-25T20:42:03.381Z,86.62
2022-09-25T20:44:31.337Z,85.98
2022-09-25T20:46:59.173Z,87.81
2022-09-25T20:49:30.215Z,87.27
2022-09-25T20:51:57.862Z,85.98
2022-09-25T20:54:28.627Z,86.47
2022-09-25T20:56:56.288Z,85.61
2022-09-25T20:59:26.903Z,85.84
2022-09-25T21:01:54.930Z,86.66
2022-09-25T21:04:22.591Z,87.20
2022-09-25T21:06:53.297Z,83.78
2022-09-25T21:09:21.687Z,83.38
2022-09-25T21:11:50.992Z,82.93
2022-09-25T21:14:19.591Z,85.12
2022-09-25T21:16:50.992Z,83.47
2022-09-25T21:19:29.089Z,83.05
2022-09-25T21:21:56.638Z,82.31
2022-09-25T21:24:26.971Z,81.70
2022-09-25T21:26:56.303Z,83.67
2022-09-25T21:29:24.109Z,85.05
2022-09-25T21:31:52.204Z,86.59
2022-09-25T21:34:20.161Z,86.23
2022-09-25T21:36:47.980Z,84.03
2022-09-25T21:39:17.323Z,85.95
2022-09-25T21:41:47.614Z,86.76
2022-09-25T21:44:17.225Z,89.35
2022-09-25T21:46:47.004Z,89.22
2022-09-25T21:49:16.408Z,89.49
2022-09-25T21:51:44.830Z,87.29
2022-09-25T21:54:12.892Z,86.78
2022-09-25T21:56:41.366Z,85.36
2022-09-25T21:59:09.721Z,85.87
2022-09-25T22:01:40.373Z,84.50
2022-09-25T22:04:08.874Z,84.56
2022-09-25T22:06:39.734Z,83.96
2022-09-25T22:09:08.594Z,82.79
2022-09-25T22:11:37.325Z,83.65
2022-09-25T22:14:05.810Z,82.37
2022-09-25T22:16:33.957Z,83.45
2022-09-25T22:19:08.009Z,84.11
2022-09-25T22:21:35.827Z,82.71
2022-09-25T22:24:06.282Z,84.08
2022-09-25T22:26:34.846Z,82.48
2022-09-25T22:29:02.379Z,81.52
2022-09-25T22:31:32.736Z,81.15
2022-09-25T22:34:01.215Z,81.63
2022-09-25T22:36:30.674Z,81.35
2022-09-25T22:39:04.324Z,80.92
2022-09-25T22:41:35.896Z,81.75
2022-09-25T22:44:03.727Z,82.92
2022-09-25T22:46:31.633Z,82.38
2022-09-25T22:48:59.250Z,84.32
2022-09-25T22:51:26.953Z,83.58
2022-09-25T22:53:56.403Z,84.34
2022-09-25T22:56:24.390Z,85.21
2022-09-25T22:58:53.068Z,84.78
2022-09-25T23:01:22.008Z,83.88
2022-09-25T23:03:49.606Z,84.44
2022-09-25T23:06:17.196Z,83.78
2022-09-25T23:08:50.126Z,82.21
2022-09-25T23:11:21.797Z,84.39
2022-09-25T23:13:53.352Z,85.39
2022-09-25T23:16:21.136Z,85.46
2022-09-25T23:18:55.243Z,86.14
2022-09-25T23:21:24.049Z,84.98
2022-09-25T23:23:51.920Z,86.06
2022-09-25T23:26:21.658Z,85.82
2022-09-25T23:28:58.414Z,85.29
2022-09-25T23:31:26.350Z,83.79
2022-09-25T23:33:55.298Z,84.94
2022-09-25T23:36:24.745Z,83.38
2022-09-25T23:38:52.721Z,84.32
2022-09-25T23:41:24.084Z,84.51
2022-09-25T23:43:54.345Z,84.91
2022-09-25T23:46:25.644Z,84.06
2022-09-25T23:48:53.250Z,83.38
2022-09-25T23:51:22.235Z,83.45
2022-09-25T23:53:50.205Z,84.14
2022-09-25T23:56:18.802Z,85.42
2022-09-25T23:58:48.285Z,83.81
